Time;durP1;ratioP1;P1;durP2;ratioP2;P2;SDS_P1;SDS_P2;PMS_P1;PMS_P2;Temp;Humidity;BMP_temperature;BMP_pressure;BME280_temperature;BME280_humidity;BME280_pressure;Samples;Min_cycle;Max_cycle;Signal;HPM_P1;HPM_P2
2021/10/07 00:02:20;;;;;;;8.73;6.13;;;10.10;99.90;;;;;;5082770;28;20043;-75
2021/10/07 00:04:47;;;;;;;8.73;6.07;;;10.00;99.90;;;;;;5083097;28;20043;-75
2021/10/07 00:07:14;;;;;;;7.75;4.25;;;10.00;99.90;;;;;;5085648;27;20039;-75
2021/10/07 00:09:40;;;;;;;6.15;5.55;;;9.90;99.90;;;;;;5090285;27;20031;-75
2021/10/07 00:12:07;;;;;;;6.80;5.57;;;9.80;99.90;;;;;;5073886;27;20031;-75
2021/10/07 00:14:34;;;;;;;6.47;5.03;;;9.80;99.90;;;;;;5070255;28;20043;-75
2021/10/07 00:17:01;;;;;;;7.40;5.30;;;9.70;99.90;;;;;;5114474;27;20753;-75
2021/10/07 00:19:27;;;;;;;7.68;5.20;;;9.70;99.90;;;;;;5113789;27;20042;-75
2021/10/07 00:21:53;;;;;;;8.00;5.50;;;9.70;99.90;;;;;;5087196;27;20040;-75
2021/10/07 00:24:20;;;;;;;9.38;5.53;;;9.60;99.90;;;;;;5056779;27;20055;-75
2021/10/07 00:26:47;;;;;;;15.93;5.20;;;9.70;99.90;;;;;;5089607;27;20048;-75
2021/10/07 00:31:46;;;;;;;18.95;5.45;;;9.70;99.90;;;;;;5090662;27;20043;-75
2021/10/07 00:39:05;;;;;;;7.85;4.65;;;9.90;99.90;;;;;;5083633;28;20044;-75
2021/10/07 00:41:38;;;;;;;12.65;4.95;;;9.90;99.90;;;;;;5089082;27;20039;-75
2021/10/07 00:44:05;;;;;;;;;;;9.90;99.90;;;;;;5114938;27;20031;-75
2021/10/07 00:46:43;;;;;;;8.05;3.95;;;10.00;99.90;;;;;;5088506;27;19923;-75
2021/10/07 00:49:10;;;;;;;13.02;4.60;;;10.00;99.90;;;;;;5071978;28;20047;-75
2021/10/07 00:51:36;;;;;;;14.40;5.13;;;10.00;99.90;;;;;;5070113;27;20147;-75
2021/10/07 00:54:03;;;;;;;10.45;4.68;;;10.00;99.90;;;;;;5084992;28;20048;-75
2021/10/07 00:56:30;;;;;;;9.55;5.20;;;10.00;99.90;;;;;;5091822;28;20039;-75
2021/10/07 00:58:57;;;;;;;6.78;5.28;;;10.10;99.90;;;;;;5054948;28;20059;-75
2021/10/07 01:01:23;;;;;;;17.52;4.78;;;10.10;99.90;;;;;;5091390;28;20040;-75
2021/10/07 01:03:50;;;;;;;16.35;5.55;;;10.10;99.90;;;;;;5082750;28;20040;-75
2021/10/07 01:06:16;;;;;;;15.88;4.50;;;10.20;99.90;;;;;;5085642;28;20767;-75
2021/10/07 01:08:43;;;;;;;19.98;3.95;;;10.20;99.90;;;;;;5088844;28;20044;-75
2021/10/07 01:11:10;;;;;;;21.52;3.85;;;10.20;99.90;;;;;;5083256;28;20052;-75
2021/10/07 01:13:38;;;;;;;21.05;3.35;;;10.20;99.90;;;;;;5089976;28;20384;-75
2021/10/07 01:16:05;;;;;;;16.60;2.45;;;10.30;99.90;;;;;;5092654;28;20036;-75
2021/10/07 01:18:31;;;;;;;21.70;2.80;;;10.30;99.90;;;;;;5082610;28;20035;-75
2021/10/07 01:20:58;;;;;;;23.85;2.78;;;10.40;99.90;;;;;;5084773;28;20717;-75
2021/10/07 01:23:24;;;;;;;29.42;3.38;;;10.40;99.90;;;;;;5092392;28;20069;-73
2021/10/07 01:25:51;;;;;;;14.50;3.67;;;10.40;99.90;;;;;;5065568;28;20067;-73
2021/10/07 01:28:17;;;;;;;21.20;3.55;;;10.40;99.90;;;;;;5084672;28;20042;-72
2021/10/07 01:30:44;;;;;;;22.42;3.85;;;10.40;99.90;;;;;;5091664;28;20035;-72
2021/10/07 01:33:11;;;;;;;20.40;3.65;;;10.40;99.90;;;;;;5067347;28;20500;-75
2021/10/07 01:35:37;;;;;;;11.45;3.47;;;10.30;99.90;;;;;;5085739;28;20511;-75
2021/10/07 01:38:04;;;;;;;5.55;2.72;;;10.30;99.90;;;;;;5091530;28;20397;-75
2021/10/07 01:40:31;;;;;;;5.20;3.30;;;10.20;99.90;;;;;;5063798;28;20058;-75
2021/10/07 01:42:57;;;;;;;4.88;2.70;;;10.10;99.90;;;;;;5090242;28;20043;-75
2021/10/07 01:45:24;;;;;;;5.68;2.17;;;10.00;99.90;;;;;;5086669;28;20047;-75
2021/10/07 01:47:51;;;;;;;2.20;1.77;;;10.00;99.90;;;;;;5081943;28;20477;-75
2021/10/07 01:50:17;;;;;;;3.80;1.88;;;9.90;99.90;;;;;;5082729;28;20028;-75
2021/10/07 01:52:44;;;;;;;9.93;2.05;;;9.90;99.90;;;;;;5082492;28;20047;-75
2021/10/07 01:55:11;;;;;;;9.35;2.38;;;9.80;99.90;;;;;;5071288;28;20048;-75
2021/10/07 01:57:38;;;;;;;8.18;2.70;;;9.80;99.90;;;;;;5082601;28;20052;-76
2021/10/07 02:00:07;;;;;;;15.10;2.30;;;9.80;99.90;;;;;;5090757;28;20043;-75
2021/10/07 02:02:38;;;;;;;9.57;2.65;;;9.80;99.90;;;;;;5089792;28;20067;-75
2021/10/07 02:05:05;;;;;;;6.88;2.50;;;9.80;99.90;;;;;;5083325;28;20031;-75
2021/10/07 02:07:32;;;;;;;9.18;3.20;;;9.70;99.90;;;;;;5090676;28;20050;-75
2021/10/07 02:09:58;;;;;;;8.52;2.92;;;9.70;99.90;;;;;;5090290;28;20484;-75
2021/10/07 02:12:25;;;;;;;6.47;3.20;;;9.70;99.90;;;;;;5093815;28;20044;-75
2021/10/07 02:14:51;;;;;;;10.65;2.83;;;9.70;99.90;;;;;;5050567;28;20048;-75
2021/10/07 02:17:17;;;;;;;17.08;3.95;;;9.70;99.90;;;;;;5082651;28;20058;-75
2021/10/07 02:19:44;;;;;;;13.00;3.72;;;9.80;99.90;;;;;;5082720;28;20043;-75
2021/10/07 02:22:10;;;;;;;4.43;2.78;;;9.70;99.90;;;;;;5088507;28;20043;-75
2021/10/07 02:24:37;;;;;;;6.95;2.67;;;9.70;99.90;;;;;;5090461;28;20039;-75
2021/10/07 02:27:04;;;;;;;9.13;3.20;;;9.70;99.90;;;;;;5066923;28;20040;-75
2021/10/07 02:29:30;;;;;;;3.25;2.70;;;9.70;99.90;;;;;;5067441;28;20043;-75
2021/10/07 02:31:57;;;;;;;7.25;3.22;;;9.60;99.90;;;;;;5049853;28;20145;-75
2021/10/07 02:34:23;;;;;;;5.78;3.22;;;9.70;99.90;;;;;;5090341;28;20031;-75
2021/10/07 02:36:50;;;;;;;25.08;3.30;;;9.70;99.90;;;;;;5091229;28;20050;-75
2021/10/07 02:39:16;;;;;;;14.93;3.55;;;9.70;99.90;;;;;;5088060;28;20066;-75
2021/10/07 02:41:43;;;;;;;16.13;3.22;;;9.70;99.90;;;;;;5086108;28;20052;-75
2021/10/07 02:44:09;;;;;;;11.25;3.42;;;9.60;99.90;;;;;;5082504;28;20043;-75
2021/10/07 02:46:36;;;;;;;10.32;3.50;;;9.60;99.90;;;;;;5080892;28;20051;-73
2021/10/07 02:49:03;;;;;;;10.55;4.55;;;9.60;99.90;;;;;;5067099;28;20027;-75
2021/10/07 02:51:30;;;;;;;12.23;5.35;;;9.60;99.90;;;;;;5083969;28;20755;-75
2021/10/07 02:53:57;;;;;;;7.30;5.07;;;9.50;99.90;;;;;;5094317;27;20633;-75
2021/10/07 02:56:23;;;;;;;5.10;3.45;;;9.40;99.90;;;;;;5084982;28;20043;-75
2021/10/07 02:58:49;;;;;;;3.63;3.33;;;9.40;99.90;;;;;;5109019;27;20047;-75
2021/10/07 03:01:16;;;;;;;6.03;4.43;;;9.30;99.90;;;;;;5108653;27;20047;-75
2021/10/07 03:03:42;;;;;;;4.43;3.92;;;9.30;99.90;;;;;;5105959;27;20042;-75
2021/10/07 03:06:09;;;;;;;4.20;3.80;;;9.20;99.90;;;;;;5084362;28;20629;-75
2021/10/07 03:08:35;;;;;;;4.30;3.85;;;9.10;99.90;;;;;;5085599;27;20387;-75
2021/10/07 03:11:01;;;;;;;4.07;3.67;;;9.10;99.90;;;;;;5112238;27;20035;-75
2021/10/07 03:13:28;;;;;;;3.95;3.60;;;9.10;99.90;;;;;;5069510;28;20044;-75
2021/10/07 03:15:54;;;;;;;4.65;4.25;;;9.10;99.90;;;;;;5085395;28;20036;-75
2021/10/07 03:18:21;;;;;;;3.95;3.55;;;9.00;99.90;;;;;;5107936;27;20494;-75
2021/10/07 03:20:47;;;;;;;3.75;3.38;;;8.90;99.90;;;;;;5106329;27;20043;-75
2021/10/07 03:23:13;;;;;;;4.88;3.78;;;8.90;99.90;;;;;;5068727;27;20066;-75
2021/10/07 03:25:40;;;;;;;3.92;3.30;;;8.80;99.90;;;;;;5085194;27;20042;-75
2021/10/07 03:28:06;;;;;;;3.85;3.45;;;8.80;99.90;;;;;;5103647;27;20042;-75
2021/10/07 03:30:35;;;;;;;4.00;3.60;;;8.70;99.90;;;;;;5108587;27;20039;-75
2021/10/07 03:33:07;;;;;;;3.67;3.38;;;8.70;99.90;;;;;;5066916;28;20027;-75
2021/10/07 03:35:35;;;;;;;5.20;2.80;;;8.70;99.90;;;;;;5051888;27;20606;-75
2021/10/07 03:38:02;;;;;;;3.60;3.30;;;8.70;99.90;;;;;;5049648;28;20526;-75
2021/10/07 03:40:29;;;;;;;4.13;3.83;;;8.60;99.90;;;;;;5084032;27;20036;-75
2021/10/07 03:42:56;;;;;;;4.45;4.05;;;8.60;99.90;;;;;;5108808;27;20050;-75
2021/10/07 03:45:23;;;;;;;4.38;3.80;;;8.60;99.90;;;;;;5086919;27;20035;-75
2021/10/07 03:47:49;;;;;;;4.05;3.65;;;8.50;99.90;;;;;;5082807;27;20036;-75
2021/10/07 03:50:19;;;;;;;3.67;3.35;;;8.50;99.90;;;;;;5087754;28;20034;-75
2021/10/07 03:52:45;;;;;;;4.22;3.83;;;8.50;99.90;;;;;;5085142;28;20035;-75
2021/10/07 03:55:12;;;;;;;8.38;3.65;;;8.50;99.90;;;;;;5082626;28;20044;-77
2021/10/07 03:57:38;;;;;;;3.88;3.55;;;8.40;99.90;;;;;;5062409;28;20039;-75
2021/10/07 04:00:08;;;;;;;3.97;3.20;;;8.40;99.90;;;;;;5108173;27;20400;-75
2021/10/07 04:02:39;;;;;;;3.65;3.33;;;8.40;99.90;;;;;;5106221;28;20479;-77
2021/10/07 04:05:05;;;;;;;4.13;3.67;;;8.40;99.90;;;;;;5081016;28;20040;-77
2021/10/07 04:07:32;;;;;;;3.83;3.47;;;8.30;99.90;;;;;;5073469;27;20044;-76
2021/10/07 04:09:59;;;;;;;4.55;3.92;;;8.30;99.90;;;;;;5049881;28;20496;-76
2021/10/07 04:12:27;;;;;;;5.88;4.07;;;8.30;99.90;;;;;;5082291;28;20503;-76
2021/10/07 04:14:53;;;;;;;4.68;4.13;;;8.30;99.90;;;;;;5109326;28;20040;-75
2021/10/07 04:17:19;;;;;;;6.15;4.57;;;8.20;99.90;;;;;;5069012;28;20049;-75
2021/10/07 04:19:46;;;;;;;6.18;5.30;;;8.20;99.90;;;;;;5105667;28;20051;-75
2021/10/07 04:22:12;;;;;;;12.23;10.07;;;8.30;99.90;;;;;;5080230;28;20043;-75
2021/10/07 04:24:38;;;;;;;10.77;7.85;;;8.30;99.90;;;;;;5076702;28;20520;-76
2021/10/07 04:27:05;;;;;;;7.15;5.95;;;8.30;99.90;;;;;;5082539;28;20096;-76
2021/10/07 04:29:31;;;;;;;6.85;4.90;;;8.30;99.90;;;;;;5078497;28;20043;-76
2021/10/07 04:31:58;;;;;;;9.90;4.70;;;8.40;99.90;;;;;;5084018;28;20491;-76
2021/10/07 04:34:24;;;;;;;7.57;4.28;;;8.40;99.90;;;;;;5063288;28;20381;-76
2021/10/07 04:36:50;;;;;;;4.70;3.25;;;8.40;99.90;;;;;;5106308;28;20031;-76
2021/10/07 04:39:17;;;;;;;10.80;4.13;;;8.40;99.90;;;;;;5085096;28;20050;-75
2021/10/07 04:41:44;;;;;;;6.72;4.60;;;8.40;99.90;;;;;;5086228;28;20043;-74
2021/10/07 04:44:10;;;;;;;10.05;8.65;;;8.40;99.90;;;;;;5082379;28;20492;-75
2021/10/07 04:46:37;;;;;;;9.63;7.50;;;8.30;99.90;;;;;;5110717;27;20031;-75
2021/10/07 04:49:03;;;;;;;8.68;6.32;;;8.30;99.90;;;;;;5108732;28;20042;-75
2021/10/07 04:51:30;;;;;;;6.50;5.00;;;8.30;99.90;;;;;;5083036;28;20509;-76
2021/10/07 04:53:56;;;;;;;5.28;4.20;;;8.20;99.90;;;;;;5107602;27;20044;-75
2021/10/07 04:56:23;;;;;;;5.13;3.60;;;8.20;99.90;;;;;;5112259;27;20506;-75
2021/10/07 04:58:49;;;;;;;5.35;4.38;;;8.10;99.90;;;;;;5069804;27;20125;-75
2021/10/07 05:01:19;;;;;;;5.80;4.38;;;8.10;99.90;;;;;;5114858;27;20038;-75
2021/10/07 05:03:46;;;;;;;6.55;4.13;;;8.10;99.90;;;;;;5108801;27;20056;-75
2021/10/07 05:06:13;;;;;;;5.55;3.88;;;8.00;99.90;;;;;;5088256;27;20036;-75
2021/10/07 05:08:39;;;;;;;4.50;3.72;;;8.00;99.90;;;;;;5083909;27;20051;-75
2021/10/07 05:11:06;;;;;;;5.35;3.75;;;8.00;99.90;;;;;;5108537;27;20046;-75
2021/10/07 05:13:33;;;;;;;3.28;2.88;;;7.90;99.90;;;;;;5084709;28;20515;-76
2021/10/07 05:15:59;;;;;;;4.80;3.97;;;7.90;99.90;;;;;;5070164;27;20424;-75
2021/10/07 05:18:25;;;;;;;4.50;3.33;;;7.80;99.90;;;;;;5086730;27;20507;-75
2021/10/07 05:20:53;;;;;;;4.18;2.85;;;7.80;99.90;;;;;;5088194;28;20066;-74
2021/10/07 05:23:19;;;;;;;4.32;3.08;;;7.80;99.90;;;;;;5111126;27;20666;-75
2021/10/07 05:25:47;;;;;;;3.83;2.75;;;7.70;99.90;;;;;;5071974;27;20039;-75
2021/10/07 05:28:14;;;;;;;4.38;2.80;;;7.70;99.90;;;;;;5108816;27;20357;-75
2021/10/07 05:30:40;;;;;;;7.38;5.32;;;7.70;99.90;;;;;;5109575;27;20031;-74
2021/10/07 05:33:07;;;;;;;9.80;7.50;;;7.70;99.90;;;;;;5085027;27;20058;-74
2021/10/07 05:35:33;;;;;;;11.65;9.10;;;7.60;99.90;;;;;;5066806;27;20031;-74
2021/10/07 05:37:59;;;;;;;8.88;6.90;;;7.70;99.90;;;;;;5051247;27;20055;-74
2021/10/07 05:40:26;;;;;;;7.65;5.43;;;7.70;99.90;;;;;;5110841;27;20454;-74
2021/10/07 05:42:52;;;;;;;6.47;4.60;;;7.60;99.90;;;;;;5086935;27;20941;-74
2021/10/07 05:45:19;;;;;;;5.03;3.78;;;7.60;99.90;;;;;;5089029;27;20035;-74
2021/10/07 05:47:45;;;;;;;4.65;3.80;;;7.60;99.90;;;;;;5085404;27;20055;-74
2021/10/07 05:50:12;;;;;;;5.72;4.07;;;7.60;99.90;;;;;;5069935;28;20046;-74
2021/10/07 05:52:39;;;;;;;6.57;4.25;;;7.50;99.90;;;;;;5111680;27;20035;-74
2021/10/07 05:55:06;;;;;;;5.25;3.45;;;7.50;99.90;;;;;;5110485;27;20058;-74
2021/10/07 05:57:32;;;;;;;5.80;3.83;;;7.50;99.90;;;;;;5109050;27;20392;-74
2021/10/07 05:59:59;;;;;;;5.32;4.78;;;7.40;99.90;;;;;;5085461;28;20039;-74
2021/10/07 06:02:25;;;;;;;5.15;3.55;;;7.40;99.90;;;;;;5109408;27;20530;-74
2021/10/07 06:04:54;;;;;;;4.55;3.25;;;7.40;99.90;;;;;;5083667;27;20396;-74
2021/10/07 06:07:21;;;;;;;6.43;3.00;;;7.40;99.90;;;;;;5069206;27;20049;-74
2021/10/07 06:09:47;;;;;;;3.63;3.28;;;7.40;99.90;;;;;;5086518;27;20032;-74
2021/10/07 06:12:13;;;;;;;5.53;3.60;;;7.40;99.90;;;;;;5107826;27;20039;-75
2021/10/07 06:14:40;;;;;;;4.78;3.97;;;7.40;99.90;;;;;;5108459;27;20050;-74
2021/10/07 06:17:09;;;;;;;4.78;4.13;;;7.40;99.90;;;;;;5051723;27;20051;-75
2021/10/07 06:19:40;;;;;;;6.93;3.25;;;7.40;99.90;;;;;;5073349;27;20039;-75
2021/10/07 06:22:06;;;;;;;5.50;4.28;;;7.40;99.90;;;;;;5082010;28;20050;-75
2021/10/07 06:24:33;;;;;;;5.03;3.90;;;7.50;99.90;;;;;;5081646;27;20369;-76
2021/10/07 06:26:59;;;;;;;6.03;4.38;;;7.50;99.90;;;;;;5081683;28;20031;-74
2021/10/07 06:29:27;;;;;;;10.18;3.97;;;7.60;99.90;;;;;;5081342;27;20032;-73
2021/10/07 06:31:53;;;;;;;9.73;4.28;;;7.70;99.90;;;;;;5084912;28;20068;-74
2021/10/07 06:34:20;;;;;;;14.48;3.55;;;7.80;99.90;;;;;;5083993;27;20039;-73
2021/10/07 06:36:46;;;;;;;8.77;3.50;;;7.80;99.90;;;;;;5108910;27;20501;-74
2021/10/07 06:39:13;;;;;;;8.52;3.67;;;7.90;99.90;;;;;;5067808;27;20036;-74
2021/10/07 06:41:39;;;;;;;8.60;3.60;;;8.00;99.90;;;;;;5081981;27;20039;-73
2021/10/07 06:44:07;;;;;;;8.50;3.42;;;8.00;99.90;;;;;;5064011;28;20043;-73
2021/10/07 06:46:34;;;;;;;6.32;3.33;;;8.10;99.90;;;;;;5105958;27;20028;-74
2021/10/07 06:49:00;;;;;;;13.68;4.28;;;8.20;99.90;;;;;;5062332;27;20040;-74
2021/10/07 06:51:28;;;;;;;8.18;3.25;;;8.30;99.90;;;;;;5051172;28;20452;-73
2021/10/07 06:53:57;;;;;;;7.85;3.15;;;8.30;99.90;;;;;;5079207;28;20051;-73
2021/10/07 06:56:24;;;;;;;7.55;3.00;;;8.40;99.90;;;;;;5084785;28;20042;-74
2021/10/07 06:58:53;;;;;;;10.70;2.78;;;8.40;99.90;;;;;;5069945;27;20057;-74
2021/10/07 07:01:20;;;;;;;9.05;2.78;;;8.50;99.90;;;;;;5065715;27;20050;-73
2021/10/07 07:03:52;;;;;;;4.43;2.60;;;8.50;99.90;;;;;;5106195;27;20050;-73
2021/10/07 07:06:20;;;;;;;6.13;2.65;;;8.60;99.90;;;;;;5087869;27;20294;-73
2021/10/07 07:08:47;;;;;;;4.00;2.05;;;8.60;99.90;;;;;;5102227;27;20050;-73
2021/10/07 07:11:13;;;;;;;9.85;2.10;;;8.70;99.90;;;;;;5107150;27;20388;-73
2021/10/07 07:13:40;;;;;;;5.45;4.68;;;8.80;99.90;;;;;;5080870;27;20403;-74
2021/10/07 07:16:06;;;;;;;7.13;6.35;;;8.80;99.90;;;;;;5083037;27;20039;-75
2021/10/07 07:18:36;;;;;;;10.38;9.27;;;8.90;99.90;;;;;;5067746;28;20582;-73
2021/10/07 07:21:03;;;;;;;8.23;6.50;;;9.00;99.90;;;;;;5076986;27;20039;-73
2021/10/07 07:23:29;;;;;;;6.78;5.22;;;9.10;99.90;;;;;;5108129;27;20043;-73
2021/10/07 07:25:56;;;;;;;4.70;4.20;;;9.20;99.90;;;;;;5084943;27;20031;-75
2021/10/07 07:28:22;;;;;;;4.40;3.35;;;9.30;99.90;;;;;;5064719;27;20052;-73
2021/10/07 07:30:51;;;;;;;5.95;4.05;;;9.40;99.90;;;;;;5106289;27;20513;-74
2021/10/07 07:33:22;;;;;;;11.80;4.00;;;9.50;99.90;;;;;;5055253;28;20043;-73
2021/10/07 07:35:48;;;;;;;8.88;3.60;;;9.50;99.90;;;;;;5082421;28;20047;-73
2021/10/07 07:38:14;;;;;;;14.35;3.95;;;9.60;99.90;;;;;;5100675;28;20050;-74
2021/10/07 07:40:41;;;;;;;19.58;4.70;;;9.60;99.90;;;;;;5102837;28;20508;-74
2021/10/07 07:43:08;;;;;;;5.43;3.38;;;9.70;99.90;;;;;;5101887;28;20036;-73
2021/10/07 07:45:34;;;;;;;4.97;4.47;;;9.70;99.90;;;;;;5084645;28;20040;-74
2021/10/07 07:48:01;;;;;;;9.77;4.45;;;9.80;99.90;;;;;;5101103;27;20032;-73
2021/10/07 07:50:29;;;;;;;18.45;4.75;;;9.90;99.90;;;;;;5084723;28;20036;-73
2021/10/07 07:52:58;;;;;;;20.77;4.68;;;10.00;99.90;;;;;;5100845;28;20049;-73
2021/10/07 07:55:24;;;;;;;12.85;4.82;;;10.00;99.90;;;;;;5102547;28;20468;-74
2021/10/07 07:57:51;;;;;;;14.75;4.20;;;10.10;99.90;;;;;;5101370;27;20031;-73
2021/10/07 08:00:17;;;;;;;15.55;4.70;;;10.20;99.90;;;;;;5103865;28;20035;-74
2021/10/07 08:02:44;;;;;;;20.33;5.40;;;10.20;99.90;;;;;;5102303;28;20051;-74
2021/10/07 08:05:11;;;;;;;43.95;6.45;;;10.30;99.90;;;;;;5101444;28;20094;-73
2021/10/07 08:07:37;;;;;;;25.70;6.03;;;10.30;99.90;;;;;;5102380;28;20496;-73
2021/10/07 08:10:04;;;;;;;24.98;6.05;;;10.50;99.90;;;;;;5083718;28;20138;-74
2021/10/07 08:12:33;;;;;;;20.17;6.65;;;10.60;99.90;;;;;;5083514;28;20047;-74
2021/10/07 08:15:01;;;;;;;20.92;5.88;;;10.70;99.90;;;;;;5102295;28;20035;-74
2021/10/07 08:17:28;;;;;;;30.35;6.57;;;10.80;99.90;;;;;;5083067;28;20031;-74
2021/10/07 08:19:54;;;;;;;26.75;6.05;;;11.00;99.90;;;;;;5100742;28;20035;-74
2021/10/07 08:22:22;;;;;;;33.17;7.00;;;11.00;99.90;;;;;;5082762;28;20488;-73
2021/10/07 08:24:49;;;;;;;40.53;6.40;;;11.10;99.90;;;;;;5083173;28;20039;-74
2021/10/07 08:27:15;;;;;;;50.58;6.95;;;11.20;99.90;;;;;;5084069;28;20047;-74
2021/10/07 08:29:42;;;;;;;29.13;6.22;;;11.30;99.90;;;;;;5106283;27;20035;-74
2021/10/07 08:32:09;;;;;;;74.63;6.47;;;11.30;99.90;;;;;;5108608;27;20036;-74
2021/10/07 08:34:35;;;;;;;64.28;6.97;;;11.40;99.90;;;;;;5107268;27;20459;-74
2021/10/07 08:37:02;;;;;;;40.75;6.82;;;11.50;99.90;;;;;;5105978;28;20357;-74
2021/10/07 08:39:28;;;;;;;14.10;6.60;;;11.50;99.90;;;;;;5068822;28;20122;-74
2021/10/07 08:41:55;;;;;;;16.98;8.50;;;11.60;99.90;;;;;;5104411;28;20032;-74
2021/10/07 08:44:22;;;;;;;34.30;8.38;;;11.60;99.90;;;;;;5083207;28;20067;-74
2021/10/07 08:46:51;;;;;;;25.73;8.57;;;11.70;99.90;;;;;;5069226;28;20040;-74
2021/10/07 08:49:21;;;;;;;25.23;8.93;;;11.90;99.90;;;;;;5086788;28;20073;-74
2021/10/07 08:51:47;;;;;;;14.35;9.60;;;12.00;99.90;;;;;;5086807;28;20581;-74
2021/10/07 08:54:14;;;;;;;12.13;10.15;;;12.10;99.90;;;;;;5104655;27;20040;-74
2021/10/07 08:56:41;;;;;;;16.95;11.07;;;12.20;99.90;;;;;;5106177;28;20032;-74
2021/10/07 08:59:07;;;;;;;25.35;11.55;;;12.40;99.90;;;;;;5104595;27;20054;-74
2021/10/07 09:01:39;;;;;;;14.98;12.52;;;12.50;99.90;;;;;;5104698;27;20480;-74
2021/10/07 09:04:36;;;;;;;25.20;11.85;;;12.50;99.90;;;;;;5104720;27;20502;-74
2021/10/07 09:07:10;;;;;;;19.55;12.40;;;12.50;99.90;;;;;;5076648;28;20051;-74
2021/10/07 09:09:42;;;;;;;14.57;11.27;;;12.60;99.90;;;;;;5104503;27;20040;-74
2021/10/07 09:12:16;;;;;;;14.17;10.10;;;12.80;99.90;;;;;;5106499;27;20035;-74
2021/10/07 09:14:45;;;;;;;11.02;9.25;;;12.90;99.90;;;;;;5105142;27;20628;-74
2021/10/07 09:17:14;;;;;;;23.08;9.50;;;13.00;99.90;;;;;;5105111;27;20044;-74
2021/10/07 09:19:46;;;;;;;18.75;9.75;;;13.10;99.90;;;;;;5084447;28;20530;-74
2021/10/07 09:22:30;;;;;;;25.98;9.70;;;13.20;99.90;;;;;;5069451;28;20423;-74
2021/10/07 09:24:58;;;;;;;68.38;10.68;;;13.10;99.90;;;;;;5083664;28;20039;-74
2021/10/07 09:27:31;;;;;;;13.15;10.10;;;13.10;99.90;;;;;;5069736;28;20377;-74
2021/10/07 09:30:02;;;;;;;14.25;9.48;;;13.10;99.90;;;;;;5103558;27;20040;-74
2021/10/07 09:32:40;;;;;;;15.95;11.10;;;13.20;99.90;;;;;;5088842;28;20039;-74
2021/10/07 09:35:09;;;;;;;21.77;12.10;;;13.40;99.90;;;;;;5082515;28;20465;-74
2021/10/07 09:37:43;;;;;;;17.02;12.20;;;13.50;99.90;;;;;;5104790;27;20035;-74
2021/10/07 09:40:14;;;;;;;19.20;12.90;;;13.60;99.90;;;;;;5083443;28;20380;-74
2021/10/07 09:42:42;;;;;;;27.77;14.23;;;13.70;99.90;;;;;;5069417;28;20645;-74
2021/10/07 09:45:10;;;;;;;18.02;14.63;;;13.80;99.90;;;;;;5102052;28;20043;-74
2021/10/07 09:47:40;;;;;;;18.42;13.95;;;13.90;99.90;;;;;;5105112;27;20432;-74
2021/10/07 09:50:13;;;;;;;17.35;13.40;;;13.90;99.90;;;;;;5104645;28;20024;-74
2021/10/07 09:52:41;;;;;;;20.40;14.75;;;13.90;99.90;;;;;;5104128;28;20042;-74
2021/10/07 09:55:12;;;;;;;20.42;14.75;;;13.90;99.90;;;;;;5085512;28;20070;-74
2021/10/07 09:57:55;;;;;;;20.60;15.45;;;13.90;99.90;;;;;;5084743;27;20040;-74
2021/10/07 10:00:26;;;;;;;18.30;14.07;;;13.90;99.90;;;;;;5086395;28;20482;-74
2021/10/07 10:02:54;;;;;;;17.48;13.73;;;14.00;99.90;;;;;;5085093;28;20467;-74
2021/10/07 10:05:21;;;;;;;20.25;14.38;;;14.00;99.90;;;;;;5083399;28;20033;-74
2021/10/07 10:07:48;;;;;;;18.98;15.00;;;14.00;99.90;;;;;;5083813;27;20047;-74
2021/10/07 10:10:14;;;;;;;19.02;14.50;;;14.00;99.90;;;;;;5084695;28;20044;-74
2021/10/07 10:12:42;;;;;;;20.67;14.63;;;14.10;99.90;;;;;;5108510;27;20036;-74
2021/10/07 10:15:11;;;;;;;24.10;14.82;;;14.20;99.90;;;;;;5083430;28;20526;-74
2021/10/07 10:17:38;;;;;;;24.85;15.63;;;14.30;99.90;;;;;;5086042;27;20032;-74
2021/10/07 10:20:19;;;;;;;17.83;14.68;;;14.40;99.90;;;;;;5066155;28;20043;-74
2021/10/07 10:23:01;;;;;;;17.88;13.70;;;14.40;99.90;;;;;;5082574;28;20023;-74
2021/10/07 10:25:31;;;;;;;20.83;15.47;;;14.30;99.90;;;;;;5082154;28;20044;-74
2021/10/07 10:28:03;;;;;;;24.55;16.20;;;14.30;99.90;;;;;;5081965;27;20270;-74
2021/10/07 10:30:45;;;;;;;24.67;17.85;;;14.40;99.90;;;;;;5082516;28;20487;-75
2021/10/07 10:33:39;;;;;;;26.02;17.65;;;14.50;99.90;;;;;;5102979;27;20038;-74
2021/10/07 10:36:28;;;;;;;22.42;15.75;;;14.50;99.90;;;;;;5098014;28;20052;-74
2021/10/07 10:39:09;;;;;;;25.42;17.63;;;14.50;99.90;;;;;;5068077;28;20497;-75
2021/10/07 10:41:43;;;;;;;28.75;18.45;;;14.60;99.90;;;;;;5102388;28;20039;-75
2021/10/07 10:44:28;;;;;;;23.42;17.17;;;14.70;99.90;;;;;;5084352;28;20625;-74
2021/10/07 10:47:07;;;;;;;26.02;17.98;;;14.70;99.90;;;;;;5104129;28;20020;-75
2021/10/07 10:49:52;;;;;;;33.88;20.30;;;14.80;99.90;;;;;;5101811;27;20050;-74
2021/10/07 10:52:26;;;;;;;28.60;18.98;;;14.80;99.90;;;;;;5104048;28;20019;-75
2021/10/07 10:55:03;;;;;;;28.90;19.70;;;14.90;99.90;;;;;;5082646;28;20043;-75
2021/10/07 10:57:39;;;;;;;27.73;20.10;;;14.90;99.90;;;;;;5104386;28;20035;-75
2021/10/07 11:00:10;;;;;;;26.45;18.52;;;15.00;99.90;;;;;;5084784;28;20815;-75
2021/10/07 11:02:38;;;;;;;28.85;19.42;;;15.00;99.90;;;;;;5083683;28;20048;-75
2021/10/07 11:05:26;;;;;;;30.67;21.55;;;15.00;99.90;;;;;;5082625;28;20043;-75
2021/10/07 11:08:11;;;;;;;30.98;21.15;;;15.00;99.90;;;;;;5065175;28;20492;-74
2021/10/07 11:10:40;;;;;;;30.15;19.75;;;15.00;99.90;;;;;;5102382;28;20040;-75
2021/10/07 11:13:14;;;;;;;28.83;19.95;;;15.10;99.90;;;;;;5104972;27;20032;-75
2021/10/07 11:15:41;;;;;;;30.35;21.30;;;15.10;99.90;;;;;;5103351;27;20042;-75
2021/10/07 11:18:08;;;;;;;31.63;21.13;;;15.20;99.90;;;;;;5102700;28;20038;-75
2021/10/07 11:20:35;;;;;;;28.55;20.50;;;15.20;99.90;;;;;;5084964;28;20561;-75
2021/10/07 11:23:07;;;;;;;30.70;21.42;;;15.20;99.90;;;;;;5083013;28;20028;-75
2021/10/07 11:25:36;;;;;;;28.27;20.88;;;15.30;99.90;;;;;;5100959;27;20138;-75
2021/10/07 11:28:03;;;;;;;26.92;20.55;;;15.20;99.90;;;;;;5066323;27;20032;-75
2021/10/07 11:30:33;;;;;;;25.50;19.45;;;15.20;99.90;;;;;;5084856;28;20036;-75
2021/10/07 11:33:01;;;;;;;25.23;19.83;;;15.20;99.90;;;;;;5103430;28;20035;-75
2021/10/07 11:35:29;;;;;;;23.77;19.15;;;15.20;99.90;;;;;;5082190;28;20035;-75
2021/10/07 11:38:00;;;;;;;25.48;20.27;;;15.30;99.90;;;;;;5082421;27;20444;-75
2021/10/07 11:40:35;;;;;;;23.48;18.58;;;15.20;99.90;;;;;;5103989;27;20396;-75
2021/10/07 11:43:05;;;;;;;26.63;21.00;;;15.30;99.90;;;;;;5083540;28;20036;-75
2021/10/07 11:45:39;;;;;;;23.55;19.10;;;15.30;99.90;;;;;;5083797;28;20027;-75
2021/10/07 11:48:09;;;;;;;32.10;22.85;;;15.30;99.90;;;;;;5101568;28;20031;-74
2021/10/07 11:50:42;;;;;;;22.67;18.17;;;15.40;99.90;;;;;;5102962;28;20031;-75
2021/10/07 11:53:12;;;;;;;19.98;16.38;;;15.30;99.90;;;;;;5103292;28;20472;-74
2021/10/07 11:55:41;;;;;;;22.95;18.25;;;15.30;99.90;;;;;;5083206;28;20039;-75
2021/10/07 11:58:08;;;;;;;23.80;18.52;;;15.40;99.90;;;;;;5103933;28;20036;-75
2021/10/07 12:00:49;;;;;;;21.85;18.70;;;15.50;99.90;;;;;;5102932;28;20039;-75
2021/10/07 12:03:25;;;;;;;22.95;16.92;;;15.50;99.90;;;;;;5100036;28;20023;-75
2021/10/07 12:06:03;;;;;;;19.38;16.13;;;15.50;99.90;;;;;;5083567;28;20050;-75
2021/10/07 12:08:33;;;;;;;16.90;14.95;;;15.50;99.90;;;;;;5100798;28;20050;-75
2021/10/07 12:11:02;;;;;;;21.35;17.50;;;15.50;99.90;;;;;;5067454;28;20046;-74
2021/10/07 12:13:31;;;;;;;16.27;14.48;;;15.50;99.90;;;;;;5084343;28;20043;-75
2021/10/07 12:16:04;;;;;;;19.05;15.90;;;15.50;99.90;;;;;;5102338;28;20500;-74
2021/10/07 12:18:34;;;;;;;19.55;15.63;;;15.50;99.90;;;;;;5081048;28;20038;-74
2021/10/07 12:21:19;;;;;;;18.35;15.63;;;15.50;99.90;;;;;;5080703;28;20028;-74
2021/10/07 12:23:55;;;;;;;18.92;16.38;;;15.50;99.90;;;;;;5078517;28;20051;-74
2021/10/07 12:26:29;;;;;;;17.55;14.98;;;15.60;99.90;;;;;;5102870;28;20468;-74
2021/10/07 12:28:58;;;;;;;16.20;14.18;;;15.60;99.90;;;;;;5080973;28;20762;-74
2021/10/07 12:31:29;;;;;;;15.60;14.00;;;15.70;99.90;;;;;;5102837;28;20035;-74
2021/10/07 12:34:00;;;;;;;16.80;15.10;;;15.80;99.90;;;;;;5101795;28;20035;-74
2021/10/07 12:36:37;;;;;;;16.35;14.57;;;15.90;99.90;;;;;;5081860;28;20066;-74
2021/10/07 12:39:06;;;;;;;15.02;13.43;;;15.90;99.90;;;;;;5082120;28;20046;-74
2021/10/07 12:41:40;;;;;;;15.10;13.60;;;15.90;99.90;;;;;;5100323;28;20054;-75
2021/10/07 12:44:08;;;;;;;16.98;15.15;;;15.80;99.90;;;;;;5101400;28;20043;-74
2021/10/07 12:46:47;;;;;;;15.77;13.98;;;15.80;99.90;;;;;;5081894;28;20040;-74
2021/10/07 12:49:14;;;;;;;16.40;13.55;;;15.80;99.90;;;;;;5102172;28;20031;-75
2021/10/07 12:51:47;;;;;;;13.43;12.05;;;16.00;99.90;;;;;;5084593;28;20035;-74
2021/10/07 12:54:16;;;;;;;15.95;13.90;;;16.10;99.90;;;;;;5082216;28;20544;-74
2021/10/07 12:56:45;;;;;;;13.30;11.93;;;16.20;99.90;;;;;;5103275;28;20042;-74
2021/10/07 12:59:12;;;;;;;15.80;13.20;;;16.30;99.90;;;;;;5083517;28;20055;-75